Time;durP1;ratioP1;P1;durP2;ratioP2;P2;SDS_P1;SDS_P2;PMS_P1;PMS_P2;Temp;Humidity;BMP_temperature;BMP_pressure;BME280_temperature;BME280_humidity;BME280_pressure;Samples;Min_cycle;Max_cycle;Signal;HPM_P1;HPM_P2
2022/01/26 00:05:44;;;;;;;47.00;19.38;;;5.50;99.90;;;;;;5060751;28;20675;-71
2022/01/26 00:06:34;;;;;;;34.40;17.42;;;5.50;99.90;;;;;;5059170;28;20200;-69
2022/01/26 00:09:04;;;;;;;38.13;18.38;;;5.50;99.90;;;;;;5059479;28;20216;-69
2022/01/26 00:11:32;;;;;;;38.42;18.67;;;5.50;99.90;;;;;;5059114;28;20208;-71
2022/01/26 00:14:02;;;;;;;40.72;17.88;;;5.50;99.90;;;;;;5058593;28;20458;-71
2022/01/26 00:16:38;;;;;;;36.58;16.98;;;5.60;99.90;;;;;;5059040;28;20288;-70
2022/01/26 00:19:09;;;;;;;38.95;18.30;;;5.50;99.90;;;;;;5059953;28;20197;-70
2022/01/26 00:21:41;;;;;;;39.97;19.20;;;5.50;99.90;;;;;;5059284;28;20276;-69
2022/01/26 00:24:25;;;;;;;45.33;16.92;;;5.50;99.90;;;;;;5059477;28;20217;-70
2022/01/26 00:27:07;;;;;;;35.97;16.40;;;5.50;99.90;;;;;;5059218;28;20471;-69
2022/01/26 00:29:38;;;;;;;40.08;17.42;;;5.50;99.90;;;;;;5059112;28;20254;-69
2022/01/26 00:40:35;;;;;;;38.03;17.55;;;5.40;99.90;;;;;;5058695;28;20234;-71
2022/01/26 00:43:13;;;;;;;32.05;15.43;;;5.40;99.90;;;;;;5058023;28;20733;-71
2022/01/26 00:45:42;;;;;;;29.13;14.15;;;5.30;99.90;;;;;;5057931;28;20486;-71
2022/01/26 00:48:11;;;;;;;27.15;14.13;;;5.40;99.90;;;;;;5057519;28;20244;-70
2022/01/26 00:50:40;;;;;;;36.28;15.85;;;5.50;99.90;;;;;;5057697;28;20270;-70
2022/01/26 00:53:08;;;;;;;29.92;14.95;;;5.50;99.90;;;;;;5059197;28;20767;-70
2022/01/26 00:55:37;;;;;;;30.02;14.68;;;5.50;99.90;;;;;;5060327;28;20201;-70
2022/01/26 00:58:05;;;;;;;34.00;14.60;;;5.50;99.90;;;;;;5059073;28;20227;-70
2022/01/26 01:00:33;;;;;;;32.97;14.40;;;5.50;99.90;;;;;;5059138;28;20197;-70
2022/01/26 01:03:02;;;;;;;27.50;13.05;;;5.50;99.90;;;;;;5058623;28;20274;-71
2022/01/26 01:05:36;;;;;;;31.13;13.85;;;5.50;99.90;;;;;;5058503;28;20205;-70
2022/01/26 01:08:09;;;;;;;27.90;13.18;;;5.50;99.90;;;;;;5059123;28;20625;-70
2022/01/26 01:10:39;;;;;;;26.92;13.48;;;5.50;99.90;;;;;;5058636;28;20201;-70
2022/01/26 01:13:14;;;;;;;28.10;12.85;;;5.50;99.90;;;;;;5059399;28;20295;-70
2022/01/26 01:15:42;;;;;;;33.22;14.15;;;5.50;99.90;;;;;;5059645;28;20291;-71
2022/01/26 01:18:16;;;;;;;27.33;14.13;;;5.50;99.90;;;;;;5058502;28;20375;-72
2022/01/26 01:23:45;;;;;;;28.55;13.65;;;5.50;99.90;;;;;;5056186;28;20217;-72
2022/01/26 01:26:46;;;;;;;28.80;14.27;;;5.50;99.90;;;;;;5058574;28;20748;-72
2022/01/26 01:29:20;;;;;;;27.85;12.45;;;5.50;99.90;;;;;;5059825;28;20200;-72
2022/01/26 01:31:52;;;;;;;34.03;15.20;;;5.40;99.90;;;;;;5064925;28;20200;-71
2022/01/26 01:34:22;;;;;;;31.98;15.15;;;5.40;99.90;;;;;;5066566;28;20219;-70
2022/01/26 01:36:52;;;;;;;29.88;13.95;;;5.40;99.90;;;;;;5071724;28;20285;-71
2022/01/26 01:39:21;;;;;;;27.52;13.55;;;5.40;99.90;;;;;;5069566;28;20315;-69
2022/01/26 01:41:52;;;;;;;34.00;15.32;;;5.30;99.90;;;;;;5067255;28;20299;-70
2022/01/26 01:44:19;;;;;;;31.25;15.15;;;5.30;99.90;;;;;;5061071;28;20228;-71
2022/01/26 01:46:48;;;;;;;25.50;13.55;;;5.20;99.90;;;;;;5060652;28;20224;-70
2022/01/26 01:49:17;;;;;;;30.27;14.45;;;5.10;99.90;;;;;;5059543;28;20209;-70
2022/01/26 01:51:49;;;;;;;35.63;15.82;;;5.10;99.90;;;;;;5062563;28;20203;-70
2022/01/26 01:54:18;;;;;;;33.53;14.15;;;5.00;99.90;;;;;;5079698;28;20265;-69
2022/01/26 01:56:54;;;;;;;31.63;13.63;;;4.90;99.90;;;;;;5070695;28;20244;-71
2022/01/26 01:59:23;;;;;;;38.33;16.33;;;5.00;99.90;;;;;;5061223;28;20208;-71
2022/01/26 02:01:50;;;;;;;37.63;14.82;;;4.90;99.90;;;;;;5062822;28;20209;-71
2022/01/26 02:04:19;;;;;;;29.92;15.40;;;4.90;99.90;;;;;;5063621;28;20322;-72
2022/01/26 02:06:46;;;;;;;31.85;14.15;;;4.90;99.90;;;;;;5064535;28;20213;-70
2022/01/26 02:09:14;;;;;;;30.55;16.08;;;4.90;99.90;;;;;;5065072;28;20207;-72
2022/01/26 02:11:47;;;;;;;32.85;14.43;;;4.90;99.90;;;;;;5062534;28;20201;-71
2022/01/26 02:14:24;;;;;;;34.10;15.45;;;4.90;99.90;;;;;;5062454;28;20224;-72
2022/01/26 02:17:01;;;;;;;32.03;15.07;;;5.00;99.90;;;;;;5062722;28;20672;-71
2022/01/26 02:50:37;;;;;;;37.13;15.60;;;5.00;99.90;;;;;;5061247;28;20517;-69
2022/01/26 02:53:24;;;;;;;40.55;17.48;;;5.00;99.90;;;;;;5061122;28;20226;-72
2022/01/26 02:55:58;;;;;;;36.22;16.30;;;5.00;99.90;;;;;;5060797;28;20193;-70
2022/01/26 02:58:48;;;;;;;35.55;16.52;;;5.00;99.90;;;;;;5060970;28;20264;-71
2022/01/26 03:01:38;;;;;;;33.20;17.17;;;4.90;99.90;;;;;;5060977;28;20205;-71
2022/01/26 03:04:13;;;;;;;36.20;15.90;;;5.00;99.90;;;;;;5060128;28;20432;-71
2022/01/26 03:06:47;;;;;;;34.38;16.38;;;5.00;99.90;;;;;;5060695;28;20699;-72
2022/01/26 03:09:21;;;;;;;41.55;17.63;;;5.00;99.90;;;;;;5061076;28;20285;-70
2022/01/26 03:11:50;;;;;;;38.08;17.15;;;5.00;99.90;;;;;;5059794;28;20223;-69
2022/01/26 03:14:28;;;;;;;32.80;15.90;;;5.00;99.90;;;;;;5060974;28;20201;-72
2022/01/26 03:17:00;;;;;;;38.65;17.10;;;5.10;99.90;;;;;;5060960;28;20217;-70
2022/01/26 03:19:35;;;;;;;36.15;17.45;;;5.10;99.90;;;;;;5060395;28;20232;-71
2022/01/26 03:31:04;;;;;;;32.17;15.48;;;5.00;99.90;;;;;;5049918;28;20211;-73
2022/01/26 03:36:32;;;;;;;40.00;17.70;;;5.00;99.90;;;;;;5017221;28;20218;-72
2022/01/26 03:39:06;;;;;;;37.65;17.58;;;5.00;99.90;;;;;;5051197;28;20293;-72
2022/01/26 03:41:41;;;;;;;36.85;18.23;;;5.00;99.90;;;;;;5061427;28;20205;-72
2022/01/26 03:44:11;;;;;;;37.90;18.08;;;5.00;99.90;;;;;;5062924;28;20196;-70
2022/01/26 03:46:39;;;;;;;45.33;21.10;;;5.10;99.90;;;;;;5061361;28;20308;-69
2022/01/26 03:49:08;;;;;;;44.33;19.83;;;5.10;99.90;;;;;;5059779;28;20655;-71
2022/01/26 03:51:37;;;;;;;43.88;19.50;;;5.10;99.90;;;;;;5061633;28;20297;-71
2022/01/26 03:54:06;;;;;;;45.03;20.55;;;5.10;99.90;;;;;;5062405;28;20211;-70
2022/01/26 03:56:35;;;;;;;40.28;17.42;;;5.10;99.90;;;;;;5060631;28;20529;-70
2022/01/26 03:59:03;;;;;;;42.00;18.92;;;5.10;99.90;;;;;;5060289;28;20300;-71
2022/01/26 04:01:32;;;;;;;44.88;20.50;;;5.10;99.90;;;;;;5060436;28;20205;-72
2022/01/26 04:04:01;;;;;;;44.33;18.63;;;5.10;99.90;;;;;;5060217;28;20266;-70
2022/01/26 04:06:30;;;;;;;44.28;20.88;;;5.20;99.90;;;;;;5060151;28;20858;-70
2022/01/26 04:08:58;;;;;;;37.20;18.35;;;5.20;99.90;;;;;;5061729;28;20208;-70
2022/01/26 04:11:34;;;;;;;40.22;18.52;;;5.20;99.90;;;;;;5060985;28;20299;-71
2022/01/26 04:14:06;;;;;;;39.88;18.17;;;5.20;99.90;;;;;;5061371;28;20743;-71
2022/01/26 04:16:36;;;;;;;38.67;19.42;;;5.20;99.90;;;;;;5064299;28;20675;-71
2022/01/26 04:19:05;;;;;;;42.70;19.85;;;5.10;99.90;;;;;;5078685;28;20201;-70
2022/01/26 04:21:46;;;;;;;40.47;16.73;;;5.10;99.90;;;;;;5073726;28;20205;-71
2022/01/26 04:24:18;;;;;;;42.10;19.80;;;5.10;99.90;;;;;;5061155;28;20215;-71
2022/01/26 04:26:50;;;;;;;34.78;17.55;;;5.10;99.90;;;;;;5062480;28;20224;-71
2022/01/26 04:29:20;;;;;;;42.33;17.98;;;5.00;99.90;;;;;;5061812;28;20393;-71
2022/01/26 04:31:49;;;;;;;41.67;19.02;;;5.10;99.90;;;;;;5060244;28;20200;-70
2022/01/26 04:34:17;;;;;;;38.78;18.20;;;5.10;99.90;;;;;;5060279;28;20197;-71
2022/01/26 04:36:51;;;;;;;42.00;18.75;;;5.10;99.90;;;;;;5060495;28;20224;-71
2022/01/26 04:39:23;;;;;;;42.50;18.92;;;5.00;99.90;;;;;;5060339;28;20209;-69
2022/01/26 04:41:54;;;;;;;41.72;18.00;;;5.10;99.90;;;;;;5060579;28;20201;-70
2022/01/26 04:44:25;;;;;;;50.13;21.30;;;5.10;99.90;;;;;;5060760;28;20317;-71
2022/01/26 04:46:54;;;;;;;41.17;19.70;;;5.20;99.90;;;;;;5060773;28;20220;-70
2022/01/26 04:49:22;;;;;;;43.47;18.55;;;5.10;99.90;;;;;;5060471;28;20217;-71
2022/01/26 04:51:50;;;;;;;42.97;19.08;;;5.20;99.90;;;;;;5061702;28;20209;-71
2022/01/26 04:54:19;;;;;;;43.58;18.70;;;5.20;99.90;;;;;;5061305;28;20212;-72
2022/01/26 04:56:47;;;;;;;39.20;18.55;;;5.20;99.90;;;;;;5062272;28;20226;-73
2022/01/26 04:59:14;;;;;;;40.38;17.52;;;5.20;99.90;;;;;;5062344;28;20204;-70
2022/01/26 05:01:42;;;;;;;35.90;17.35;;;5.20;99.90;;;;;;5060763;28;20201;-71
2022/01/26 05:04:11;;;;;;;37.50;18.40;;;5.20;99.90;;;;;;5059919;28;20201;-72
2022/01/26 05:06:39;;;;;;;35.80;17.02;;;5.20;99.90;;;;;;5059975;28;20243;-72
2022/01/26 05:09:07;;;;;;;32.55;16.65;;;5.20;99.90;;;;;;5060359;28;20722;-71
2022/01/26 05:11:37;;;;;;;30.85;15.43;;;5.20;99.90;;;;;;5060538;28;20201;-71
2022/01/26 05:14:06;;;;;;;37.78;17.35;;;5.10;99.90;;;;;;5060441;28;20472;-71
2022/01/26 05:16:34;;;;;;;33.55;15.70;;;5.10;99.90;;;;;;5060827;28;20223;-71
2022/01/26 05:19:04;;;;;;;39.55;17.73;;;5.10;99.90;;;;;;5061006;28;20242;-70
2022/01/26 05:21:35;;;;;;;36.35;17.17;;;5.10;99.90;;;;;;5062396;28;20454;-68
2022/01/26 05:24:03;;;;;;;33.78;16.65;;;5.10;99.90;;;;;;5062491;28;20223;-68
2022/01/26 05:26:31;;;;;;;30.40;15.05;;;5.10;99.90;;;;;;5061719;28;20284;-68
2022/01/26 05:28:59;;;;;;;35.00;14.35;;;5.10;99.90;;;;;;5060270;28;20197;-70
2022/01/26 05:31:27;;;;;;;30.08;13.48;;;5.10;99.90;;;;;;5059202;28;20204;-69
2022/01/26 05:33:55;;;;;;;30.45;13.60;;;5.10;99.90;;;;;;5059137;28;20212;-67
2022/01/26 05:36:23;;;;;;;30.38;14.77;;;5.10;99.90;;;;;;5062637;28;20219;-67
2022/01/26 05:38:52;;;;;;;34.47;16.58;;;5.10;99.90;;;;;;5062799;28;20596;-68
2022/01/26 05:41:20;;;;;;;30.35;14.63;;;5.10;99.90;;;;;;5063223;28;20525;-67
2022/01/26 05:43:48;;;;;;;34.28;14.02;;;5.10;99.90;;;;;;5062731;28;20277;-69
2022/01/26 05:46:22;;;;;;;31.20;14.98;;;5.10;99.90;;;;;;5062298;28;20249;-68
2022/01/26 05:48:52;;;;;;;31.70;14.50;;;5.00;99.90;;;;;;5062256;28;20239;-68
2022/01/26 05:51:20;;;;;;;30.08;15.43;;;5.00;99.90;;;;;;5062589;28;20672;-69
2022/01/26 05:53:48;;;;;;;39.45;15.50;;;5.00;99.90;;;;;;5062496;28;20197;-69
2022/01/26 05:56:17;;;;;;;30.40;15.73;;;5.00;99.90;;;;;;5061761;28;20201;-69
2022/01/26 05:58:45;;;;;;;33.83;15.70;;;5.00;99.90;;;;;;5062619;28;20209;-70
2022/01/26 06:01:14;;;;;;;34.13;15.10;;;5.10;99.90;;;;;;5062337;28;20566;-65
2022/01/26 06:03:42;;;;;;;36.83;15.80;;;5.00;99.90;;;;;;5061449;28;20205;-67
2022/01/26 06:06:10;;;;;;;34.70;15.63;;;5.00;99.90;;;;;;5061907;28;20738;-67
2022/01/26 06:08:38;;;;;;;39.17;16.48;;;5.00;99.90;;;;;;5062799;28;20528;-66
2022/01/26 06:11:06;;;;;;;40.88;16.15;;;5.00;99.90;;;;;;5063505;28;20372;-68
2022/01/26 06:13:35;;;;;;;36.90;16.40;;;5.00;99.90;;;;;;5063963;28;20205;-68
2022/01/26 06:16:03;;;;;;;33.88;15.23;;;5.00;99.90;;;;;;5063235;28;20197;-68
2022/01/26 06:18:31;;;;;;;36.88;15.90;;;5.00;99.90;;;;;;5062755;28;20283;-68
2022/01/26 06:20:59;;;;;;;43.75;18.08;;;5.00;99.90;;;;;;5062714;28;20220;-69
2022/01/26 06:23:27;;;;;;;39.78;17.25;;;5.00;99.90;;;;;;5062427;28;20205;-68
2022/01/26 06:25:56;;;;;;;31.90;14.73;;;5.00;99.90;;;;;;5064506;28;20300;-68
2022/01/26 06:28:27;;;;;;;36.22;17.38;;;5.00;99.90;;;;;;5064299;28;20380;-70
2022/01/26 06:30:59;;;;;;;42.72;19.33;;;5.00;99.90;;;;;;5065286;28;20299;-69
2022/01/26 06:33:28;;;;;;;39.30;16.30;;;5.00;99.90;;;;;;5066820;28;20201;-70
2022/01/26 06:35:57;;;;;;;39.58;17.25;;;5.00;99.90;;;;;;5066861;28;20228;-70
2022/01/26 06:38:26;;;;;;;38.95;16.85;;;4.90;99.90;;;;;;5063830;28;20249;-70
2022/01/26 06:40:54;;;;;;;38.67;17.42;;;4.90;99.90;;;;;;5062075;28;20209;-69
2022/01/26 06:43:26;;;;;;;37.13;18.33;;;4.90;99.90;;;;;;5061895;28;20230;-69
2022/01/26 06:46:00;;;;;;;31.60;15.00;;;4.90;99.90;;;;;;5068493;28;20242;-69
2022/01/26 06:48:43;;;;;;;34.92;15.57;;;4.90;99.90;;;;;;5062214;28;20220;-69
2022/01/26 06:51:12;;;;;;;38.10;15.63;;;4.80;99.90;;;;;;5061965;28;20211;-68
2022/01/26 06:53:40;;;;;;;41.97;17.52;;;4.80;99.90;;;;;;5065096;28;20239;-69
2022/01/26 06:56:08;;;;;;;39.97;17.02;;;4.90;99.90;;;;;;5063087;28;20197;-69
2022/01/26 06:58:36;;;;;;;37.10;18.00;;;4.90;99.90;;;;;;5063234;28;20224;-69
2022/01/26 07:01:05;;;;;;;39.30;16.80;;;5.00;99.90;;;;;;5062048;28;20208;-69
2022/01/26 07:03:34;;;;;;;29.88;15.45;;;5.00;99.90;;;;;;5062277;28;20204;-70
2022/01/26 07:06:02;;;;;;;34.40;15.70;;;4.90;99.90;;;;;;5064487;28;20208;-71
2022/01/26 07:08:30;;;;;;;41.88;16.90;;;5.00;99.90;;;;;;5064430;28;20212;-69
2022/01/26 07:10:59;;;;;;;38.83;17.00;;;5.00;99.90;;;;;;5062176;28;20354;-69
2022/01/26 07:13:27;;;;;;;41.05;16.13;;;5.00;99.90;;;;;;5060672;28;20197;-68
2022/01/26 07:21:29;;;;;;;36.28;15.93;;;4.90;99.90;;;;;;5060458;28;20758;-68
2022/01/26 07:23:58;;;;;;;40.35;17.88;;;4.90;99.90;;;;;;5060345;28;20211;-68
2022/01/26 07:26:28;;;;;;;30.55;15.40;;;4.90;99.90;;;;;;5060128;28;20227;-70
2022/01/26 07:28:57;;;;;;;28.55;15.80;;;4.90;99.90;;;;;;5060424;28;20720;-69
2022/01/26 07:31:24;;;;;;;39.63;17.52;;;4.90;99.90;;;;;;5060563;28;20817;-68
2022/01/26 07:33:56;;;;;;;37.13;16.38;;;4.90;99.90;;;;;;5059777;28;20311;-70
2022/01/26 07:36:24;;;;;;;29.40;15.60;;;4.90;99.90;;;;;;5060181;28;20272;-68
2022/01/26 07:38:54;;;;;;;31.83;14.50;;;4.90;99.90;;;;;;5060314;28;20201;-68
2022/01/26 07:41:23;;;;;;;28.17;14.23;;;4.80;99.90;;;;;;5060652;28;20284;-69
2022/01/26 07:43:51;;;;;;;34.33;16.33;;;4.80;99.90;;;;;;5059679;28;20208;-68
2022/01/26 07:46:19;;;;;;;35.15;15.55;;;4.80;99.90;;;;;;5060514;28;20197;-69
2022/01/26 07:48:47;;;;;;;29.15;16.33;;;4.90;99.90;;;;;;5059455;28;20209;-68
2022/01/26 07:51:16;;;;;;;31.75;16.73;;;4.90;99.90;;;;;;5060427;28;20891;-68
2022/01/26 07:53:44;;;;;;;32.20;15.73;;;4.90;99.90;;;;;;5060147;28;20201;-69
2022/01/26 07:56:12;;;;;;;37.15;15.95;;;4.90;99.90;;;;;;5060400;28;20211;-69
2022/01/26 07:58:40;;;;;;;30.67;16.05;;;4.80;99.90;;;;;;5059275;28;20703;-76
2022/01/26 08:01:08;;;;;;;33.70;16.33;;;4.90;99.90;;;;;;5060305;28;20204;-72
2022/01/26 08:03:37;;;;;;;30.67;15.48;;;4.80;99.90;;;;;;5059998;28;20197;-72
2022/01/26 08:06:06;;;;;;;32.47;17.58;;;4.70;99.90;;;;;;5060419;28;20220;-72
2022/01/26 08:08:35;;;;;;;40.20;18.13;;;4.80;99.90;;;;;;5062476;28;20816;-71
2022/01/26 08:11:03;;;;;;;31.30;17.92;;;4.70;99.90;;;;;;5060042;28;20287;-71
2022/01/26 08:13:30;;;;;;;37.10;17.52;;;4.70;99.90;;;;;;5059744;28;20714;-71
2022/01/26 08:15:58;;;;;;;33.35;17.00;;;4.70;99.90;;;;;;5059923;28;20721;-73
2022/01/26 08:18:26;;;;;;;38.58;19.17;;;4.70;99.90;;;;;;5059980;28;20284;-72
2022/01/26 08:20:54;;;;;;;33.58;16.30;;;4.60;99.90;;;;;;5060141;28;20287;-73
2022/01/26 08:23:22;;;;;;;36.08;17.80;;;4.70;99.90;;;;;;5060592;28;20204;-73
2022/01/26 08:25:51;;;;;;;36.63;17.67;;;4.70;99.90;;;;;;5061083;28;20212;-73
2022/01/26 08:28:26;;;;;;;41.42;18.50;;;4.60;99.90;;;;;;5060048;28;20225;-73
2022/01/26 08:30:53;;;;;;;37.30;18.58;;;4.60;99.90;;;;;;5060462;28;20805;-72
2022/01/26 08:33:21;;;;;;;40.58;17.92;;;4.50;99.90;;;;;;5059823;28;20686;-73
2022/01/26 08:35:49;;;;;;;37.10;17.75;;;4.50;99.90;;;;;;5059599;28;20215;-72
2022/01/26 08:38:19;;;;;;;41.22;18.20;;;4.50;99.90;;;;;;5059442;28;20909;-69
2022/01/26 08:40:49;;;;;;;46.28;20.65;;;4.60;99.90;;;;;;5067125;28;20830;-73
2022/01/26 08:43:18;;;;;;;38.35;18.17;;;4.60;99.90;;;;;;5076412;28;20211;-72
2022/01/26 08:45:46;;;;;;;41.95;18.52;;;4.50;99.90;;;;;;5075766;28;20188;-72
2022/01/26 08:48:14;;;;;;;40.35;17.15;;;4.60;99.90;;;;;;5082164;28;20248;-68
2022/01/26 08:50:42;;;;;;;35.38;18.48;;;4.60;99.90;;;;;;5081060;28;20310;-71
2022/01/26 08:53:10;;;;;;;41.97;19.23;;;4.50;99.90;;;;;;5081262;28;20202;-68
2022/01/26 08:55:38;;;;;;;46.30;20.30;;;4.60;99.90;;;;;;5081977;28;20208;-68
2022/01/26 08:58:05;;;;;;;42.00;18.73;;;4.60;99.90;;;;;;5073669;28;20873;-71
2022/01/26 09:00:37;;;;;;;45.03;18.88;;;4.70;99.90;;;;;;5082938;28;20206;-70
2022/01/26 09:03:15;;;;;;;44.75;21.35;;;4.70;99.90;;;;;;5075247;28;20268;-69
2022/01/26 09:05:43;;;;;;;38.03;19.90;;;4.70;99.90;;;;;;5080055;28;20759;-72
2022/01/26 09:08:11;;;;;;;40.55;20.10;;;4.70;99.90;;;;;;5081578;28;20234;-69
2022/01/26 09:10:40;;;;;;;37.10;18.60;;;4.70;99.90;;;;;;5081661;28;20287;-70
2022/01/26 09:13:08;;;;;;;36.15;17.58;;;4.60;99.90;;;;;;5081358;28;20193;-71
2022/01/26 09:15:39;;;;;;;39.80;19.23;;;4.60;99.90;;;;;;5081952;28;20196;-69
2022/01/26 09:18:08;;;;;;;40.67;18.52;;;4.70;99.90;;;;;;5082064;28;20216;-69
2022/01/26 09:20:38;;;;;;;45.08;20.10;;;4.70;99.90;;;;;;5082999;28;20815;-69
2022/01/26 09:23:06;;;;;;;38.97;20.17;;;4.70;99.90;;;;;;5072770;28;20722;-69
2022/01/26 09:25:35;;;;;;;42.78;20.58;;;4.70;99.90;;;;;;5082726;28;20196;-70
2022/01/26 09:28:03;;;;;;;47.78;22.13;;;4.60;99.90;;;;;;5081177;28;20224;-69
2022/01/26 09:30:31;;;;;;;45.65;22.95;;;4.60;99.90;;;;;;5082355;28;20291;-70
2022/01/26 09:33:00;;;;;;;43.47;21.33;;;4.60;99.90;;;;;;5080876;28;20204;-70
2022/01/26 09:35:28;;;;;;;41.83;19.98;;;4.60;99.90;;;;;;5081213;28;20193;-68
2022/01/26 09:37:56;;;;;;;46.85;22.63;;;4.60;99.90;;;;;;5078413;28;20718;-68
2022/01/26 09:40:24;;;;;;;45.78;19.45;;;4.60;99.90;;;;;;5079884;28;20211;-68
2022/01/26 09:42:52;;;;;;;44.70;22.15;;;4.60;99.90;;;;;;5079219;28;20208;-67
2022/01/26 09:45:19;;;;;;;44.83;20.50;;;4.60;99.90;;;;;;5079488;28;20205;-68
2022/01/26 09:47:47;;;;;;;40.97;23.35;;;4.70;99.90;;;;;;5080321;28;20349;-69
2022/01/26 09:50:37;;;;;;;54.08;21.75;;;4.70;99.90;;;;;;5082083;28;20212;-68
2022/01/26 09:53:05;;;;;;;42.28;20.60;;;4.70;99.90;;;;;;5080103;28;20281;-67
2022/01/26 09:55:33;;;;;;;42.30;20.98;;;4.70;99.90;;;;;;5081025;28;20277;-66
2022/01/26 09:58:09;;;;;;;43.95;22.23;;;4.60;99.90;;;;;;5072622;28;20225;-67
2022/01/26 10:00:37;;;;;;;45.53;22.70;;;4.70;99.90;;;;;;5079952;28;20201;-68
2022/01/26 10:03:06;;;;;;;42.47;22.15;;;4.70;99.90;;;;;;5080576;28;20394;-66
2022/01/26 10:05:41;;;;;;;41.28;19.20;;;4.80;99.90;;;;;;5075902;28;20213;-67
2022/01/26 10:08:16;;;;;;;47.33;20.67;;;4.90;99.90;;;;;;5080944;28;20310;-66
2022/01/26 10:17:18;;;;;;;42.28;20.40;;;4.90;99.90;;;;;;5078845;28;20287;-73
2022/01/26 10:19:20;;;;;;;38.92;21.48;;;4.90;99.90;;;;;;5074268;28;20197;-68
2022/01/26 10:21:52;;;;;;;45.33;21.30;;;5.00;99.90;;;;;;5085158;28;20196;-68
2022/01/26 10:24:25;;;;;;;51.58;21.38;;;5.00;99.90;;;;;;5082918;28;20196;-66
2022/01/26 10:26:58;;;;;;;47.22;22.80;;;5.00;99.90;;;;;;5083037;28;20311;-66
2022/01/26 10:29:27;;;;;;;49.00;21.40;;;5.00;99.90;;;;;;5082254;28;20801;-68
2022/01/26 10:31:56;;;;;;;39.67;20.23;;;4.90;99.90;;;;;;5081881;28;20247;-67
2022/01/26 10:34:27;;;;;;;51.45;21.15;;;4.90;99.90;;;;;;5062403;28;20280;-65
2022/01/26 10:37:00;;;;;;;49.28;22.00;;;4.90;99.90;;;;;;5062305;28;20221;-66
2022/01/26 10:39:34;;;;;;;50.17;21.40;;;4.80;99.90;;;;;;5063315;28;20287;-66
2022/01/26 10:42:07;;;;;;;47.00;20.92;;;4.80;99.90;;;;;;5065495;28;20463;-68
2022/01/26 10:44:41;;;;;;;46.17;20.98;;;4.80;99.90;;;;;;5064839;28;20204;-69
2022/01/26 10:47:10;;;;;;;39.78;18.45;;;4.80;99.90;;;;;;5065192;28;20259;-69
2022/01/26 10:50:06;;;;;;;48.97;21.00;;;4.80;99.90;;;;;;5065313;28;20228;-70
2022/01/26 10:52:35;;;;;;;41.30;19.25;;;4.70;99.90;;;;;;5063623;28;20810;-69
2022/01/26 10:55:09;;;;;;;43.33;19.63;;;4.70;99.90;;;;;;5063426;28;20291;-67
2022/01/26 10:57:37;;;;;;;42.47;19.45;;;4.60;99.90;;;;;;5063019;28;20224;-66
2022/01/26 11:00:07;;;;;;;38.47;19.90;;;4.60;99.90;;;;;;5064244;28;20284;-67
2022/01/26 11:02:35;;;;;;;42.90;19.15;;;4.60;99.90;;;;;;5063366;28;20197;-69
2022/01/26 11:05:04;;;;;;;49.05;20.67;;;4.60;99.90;;;;;;5063354;28;20672;-73
2022/01/26 11:07:36;;;;;;;48.28;20.90;;;4.50;99.90;;;;;;5061375;28;20225;-73
2022/01/26 11:10:06;;;;;;;44.15;20.73;;;4.40;99.90;;;;;;5061803;28;20244;-74
2022/01/26 11:12:38;;;;;;;43.40;19.77;;;4.40;99.90;;;;;;5061809;28;20201;-73
2022/01/26 11:15:09;;;;;;;52.55;22.08;;;4.40;99.90;;;;;;5062901;28;20201;-72
2022/01/26 11:17:38;;;;;;;41.42;18.70;;;4.40;99.90;;;;;;5062434;28;20217;-74
2022/01/26 11:20:18;;;;;;;50.00;20.55;;;4.30;99.90;;;;;;5062742;28;20197;-73
2022/01/26 11:22:52;;;;;;;48.20;20.52;;;4.30;99.90;;;;;;5067817;28;20233;-73
2022/01/26 11:25:21;;;;;;;40.95;18.60;;;4.30;99.90;;;;;;5065991;28;20733;-74
2022/01/26 11:27:50;;;;;;;46.63;21.27;;;4.30;99.90;;;;;;5065869;28;20324;-73
2022/01/26 11:30:21;;;;;;;43.95;20.65;;;4.30;99.90;;;;;;5065368;28;20486;-74
2022/01/26 11:32:55;;;;;;;50.47;21.25;;;4.30;99.90;;;;;;5064371;28;20201;-74
2022/01/26 11:35:26;;;;;;;50.20;20.65;;;4.30;99.90;;;;;;5063080;28;20667;-72
2022/01/26 11:38:13;;;;;;;45.13;20.42;;;4.40;99.90;;;;;;5064350;28;20248;-75
2022/01/26 11:46:25;;;;;;;50.72;20.55;;;4.30;99.90;;;;;;5061650;28;20201;-74
2022/01/26 11:49:02;;;;;;;45.85;18.35;;;4.30;99.90;;;;;;5062351;28;20310;-73
2022/01/26 11:51:45;;;;;;;41.75;18.88;;;4.50;99.90;;;;;;5072446;28;20212;-71
2022/01/26 11:54:19;;;;;;;54.95;22.58;;;4.60;99.90;;;;;;5080387;28;20650;-71
2022/01/26 11:56:58;;;;;;;52.20;21.75;;;4.60;99.90;;;;;;5079898;28;20230;-72
2022/01/26 11:59:28;;;;;;;54.95;21.73;;;4.60;99.90;;;;;;5079060;28;20198;-69
2022/01/26 12:02:01;;;;;;;51.55;20.95;;;4.60;99.90;;;;;;5079710;28;20200;-67
2022/01/26 12:04:32;;;;;;;53.47;21.55;;;4.50;99.90;;;;;;5078846;28;20219;-69
2022/01/26 12:07:19;;;;;;;53.42;20.98;;;4.40;99.90;;;;;;5078694;28;20224;-71
2022/01/26 12:09:49;;;;;;;53.35;25.52;;;4.40;99.90;;;;;;5069547;28;20444;-70
2022/01/26 12:12:18;;;;;;;59.65;23.40;;;4.40;99.90;;;;;;5080139;28;20197;-68
2022/01/26 12:15:02;;;;;;;55.90;25.02;;;4.50;99.90;;;;;;5081127;27;20196;-68
2022/01/26 12:17:35;;;;;;;49.60;21.23;;;4.40;99.90;;;;;;5077976;28;20845;-69
2022/01/26 12:37:05;;;;;;;60.38;21.83;;;4.20;99.90;;;;;;5080756;28;20821;-67
2022/01/26 12:42:56;;;;;;;56.65;21.92;;;4.20;99.90;;;;;;5080291;28;20713;-69
2022/01/26 12:45:46;;;;;;;55.45;21.67;;;4.20;99.90;;;;;;5079409;28;20367;-69
2022/01/26 12:48:17;;;;;;;49.75;23.20;;;4.30;99.90;;;;;;5080240;28;20258;-68
2022/01/26 12:50:45;;;;;;;62.33;24.13;;;4.30;99.90;;;;;;5079985;28;20304;-69
2022/01/26 12:53:13;;;;;;;54.65;22.98;;;4.30;99.90;;;;;;5080373;28;20201;-67
2022/01/26 12:55:41;;;;;;;52.55;23.55;;;4.30;99.90;;;;;;5081079;28;20386;-67
2022/01/26 12:58:10;;;;;;;50.97;20.58;;;4.30;99.90;;;;;;5080506;28;20890;-69
2022/01/26 13:00:44;;;;;;;55.15;23.55;;;4.30;99.90;;;;;;5081929;28;20203;-70
2022/01/26 13:03:14;;;;;;;44.70;22.08;;;4.30;99.90;;;;;;5081439;28;20213;-68
2022/01/26 13:05:43;;;;;;;53.20;22.25;;;4.20;99.90;;;;;;5079984;28;20244;-69
2022/01/26 13:08:11;;;;;;;56.47;22.13;;;4.20;99.90;;;;;;5079840;28;20234;-72
2022/01/26 13:10:40;;;;;;;58.80;20.60;;;4.10;99.90;;;;;;5079920;28;20243;-70
2022/01/26 13:13:20;;;;;;;54.45;23.35;;;4.10;99.90;;;;;;5080685;28;20201;-70
2022/01/26 13:15:54;;;;;;;57.65;23.95;;;4.10;99.90;;;;;;5072890;28;20188;-71
2022/01/26 13:18:48;;;;;;;61.22;24.48;;;4.10;99.90;;;;;;5079671;28;20254;-70
2022/01/26 13:21:43;;;;;;;62.00;22.83;;;4.20;99.90;;;;;;5080488;28;20235;-71
2022/01/26 13:24:50;;;;;;;62.08;22.30;;;4.20;99.90;;;;;;5080990;28;20210;-71
2022/01/26 13:27:29;;;;;;;59.10;23.50;;;4.20;99.90;;;;;;5080150;28;20286;-71
2022/01/26 13:30:23;;;;;;;57.58;22.70;;;4.20;99.90;;;;;;5080929;28;20204;-71
2022/01/26 13:35:47;;;;;;;55.25;23.83;;;4.30;99.90;;;;;;5071771;28;20197;-70
2022/01/26 13:38:28;;;;;;;60.22;23.27;;;4.40;99.90;;;;;;5071778;28;20215;-72
2022/01/26 13:41:09;;;;;;;59.78;22.65;;;4.40;99.90;;;;;;5070235;28;20648;-71
2022/01/26 13:49:33;;;;;;;59.47;25.10;;;4.40;99.90;;;;;;5068113;28;20300;-70
2022/01/26 13:52:20;;;;;;;56.00;24.40;;;4.40;99.90;;;;;;5072793;28;20188;-70
2022/01/26 13:55:21;;;;;;;59.47;23.65;;;4.30;99.90;;;;;;5068621;28;20239;-71
2022/01/26 14:00:52;;;;;;;52.25;23.00;;;4.30;99.90;;;;;;5059804;28;20188;-70
2022/01/26 14:03:25;;;;;;;55.75;22.55;;;4.30;99.90;;;;;;5067355;28;20870;-70
2022/01/26 14:05:53;;;;;;;65.88;24.30;;;4.40;99.90;;;;;;5067362;28;20229;-68
2022/01/26 14:08:20;;;;;;;61.08;25.55;;;4.50;99.90;;;;;;5070645;28;20209;-71
2022/01/26 14:10:49;;;;;;;64.28;25.45;;;4.40;99.90;;;;;;5065519;28;20854;-67
2022/01/26 14:13:21;;;;;;;55.75;22.50;;;4.40;99.90;;;;;;5066656;28;20189;-67
2022/01/26 14:15:57;;;;;;;56.53;23.58;;;4.40;99.90;;;;;;5070483;28;20203;-68
2022/01/26 14:18:46;;;;;;;65.75;24.38;;;4.50;99.90;;;;;;5072177;28;20369;-69
2022/01/26 14:21:29;;;;;;;57.85;23.75;;;4.50;99.90;;;;;;5083429;28;20216;-68
2022/01/26 14:24:22;;;;;;;50.05;23.17;;;4.50;99.90;;;;;;5088122;28;20202;-69
2022/01/26 14:26:54;;;;;;;57.55;24.50;;;4.60;99.90;;;;;;5073709;28;20711;-70
2022/01/26 14:29:33;;;;;;;54.92;23.65;;;4.60;99.90;;;;;;5072810;28;20197;-70
2022/01/26 14:32:18;;;;;;;64.65;23.95;;;4.60;99.90;;;;;;5071622;28;20225;-69
2022/01/26 14:35:20;;;;;;;58.35;23.45;;;4.60;99.90;;;;;;5073657;28;20203;-71
2022/01/26 14:40:57;;;;;;;59.92;25.33;;;4.70;99.90;;;;;;5073549;28;20733;-68
2022/01/26 14:52:27;;;;;;;55.28;22.40;;;4.70;99.90;;;;;;5068826;28;20209;-68
2022/01/26 14:55:12;;;;;;;57.03;24.27;;;4.70;99.90;;;;;;5070611;28;20197;-71
2022/01/26 15:09:26;;;;;;;51.45;24.52;;;4.80;99.90;;;;;;5074023;28;20197;-68